Aviation Digital Data Service (ADDS)

Output produced by METARs form (1839 UTC 18 June 2019)
found at http://www.aviationweather.gov/metar/data/
 
SGES 181800Z 04012KT CAVOK 28/15 Q1015
TAF SGES 181710Z 1818/1918 07008KT 9999 SCT033 TX30/1819Z TN16/1909Z 
     BECMG 1819/1822 9999 BKN027 
     TEMPO 1900/1902 VRB03KT 8000 DZ BKN010 
     PROB40 1906/1908 00000KT 2000 -DZ BR OVC008 
     BECMG 1912/1915 24005KT 6000 RADZ OVC010
       
TAF SGCO 181710Z 1818/1918 05004KT 9999 SCT033 TX30/1819Z TN17/1909Z 
     BECMG 1819/1822 VRB04KT 9999 BKN027 
     PROB40 1906/1908 24010KT 9000 DZ BKN020 
     BECMG 1912/1915 18010KT 5000 RA OVC010